createdAt,value
2019-05-17T00:00:13.409Z,8.03
2019-05-17T00:05:13.918Z,7.35
2019-05-17T00:07:44.610Z,7.42
2019-05-17T00:10:17.455Z,7.42
2019-05-17T00:12:48.593Z,8.20
2019-05-17T00:15:19.190Z,7.65
2019-05-17T00:17:49.936Z,7.85
2019-05-17T00:20:20.578Z,7.20
2019-05-17T00:22:51.214Z,7.50
2019-05-17T00:25:21.829Z,7.53
2019-05-17T00:27:52.591Z,7.33
2019-05-17T00:30:23.301Z,7.97
2019-05-17T00:32:54.109Z,7.28
2019-05-17T00:35:26.780Z,6.80
2019-05-17T00:37:57.188Z,6.58
2019-05-17T00:40:30.317Z,7.22
2019-05-17T00:43:01.059Z,7.33
2019-05-17T00:45:31.692Z,7.22
2019-05-17T00:48:02.400Z,7.25
2019-05-17T00:50:32.961Z,7.22
2019-05-17T00:53:03.793Z,7.50
2019-05-17T00:55:36.261Z,7.20
2019-05-17T00:58:06.974Z,7.23
2019-05-17T01:00:38.034Z,7.47
2019-05-17T01:03:08.702Z,7.60
2019-05-17T01:05:39.557Z,7.67
2019-05-17T01:08:10.196Z,7.65
2019-05-17T01:10:40.848Z,8.33
2019-05-17T01:13:11.519Z,8.55
2019-05-17T01:15:42.350Z,8.65
2019-05-17T01:18:12.909Z,7.97
2019-05-17T01:20:43.466Z,10.48
2019-05-17T01:23:16.527Z,9.13
2019-05-17T01:25:48.148Z,9.58
2019-05-17T01:28:18.990Z,10.25
2019-05-17T01:30:49.549Z,10.20
2019-05-17T01:33:20.322Z,11.18
2019-05-17T01:35:51.074Z,11.45
2019-05-17T01:38:21.717Z,11.50
2019-05-17T01:40:53.441Z,11.43
2019-05-17T01:43:24.013Z,10.93
2019-05-17T01:45:54.603Z,11.05
2019-05-17T01:48:27.094Z,11.00
2019-05-17T01:50:57.713Z,10.28
2019-05-17T01:53:28.644Z,10.80
2019-05-17T01:56:00.558Z,11.03
2019-05-17T01:58:31.165Z,10.00
2019-05-17T02:01:01.841Z,10.10
2019-05-17T02:03:32.650Z,10.03
2019-05-17T02:06:03.621Z,11.65
2019-05-17T02:08:34.374Z,11.00
2019-05-17T02:11:06.837Z,10.72
2019-05-17T02:13:37.772Z,10.75
2019-05-17T02:16:09.869Z,9.85
2019-05-17T02:18:40.973Z,10.63
2019-05-17T02:21:11.925Z,9.98
2019-05-17T02:23:42.516Z,9.83
2019-05-17T02:26:13.158Z,9.95
2019-05-17T02:28:43.961Z,10.55
2019-05-17T02:31:14.613Z,10.38
2019-05-17T02:33:45.272Z,10.13
2019-05-17T02:36:16.115Z,9.68
2019-05-17T02:38:46.702Z,9.98
2019-05-17T02:41:17.566Z,9.95
2019-05-17T02:43:48.318Z,10.50
2019-05-17T02:46:19.303Z,9.90
2019-05-17T02:48:53.574Z,10.63
2019-05-17T02:51:23.682Z,10.93
2019-05-17T02:53:54.564Z,11.10
2019-05-17T02:56:25.284Z,11.45
2019-05-17T02:58:55.863Z,11.25
2019-05-17T03:01:26.530Z,11.38
2019-05-17T03:03:58.693Z,11.83
2019-05-17T03:06:29.364Z,11.28
2019-05-17T03:09:03.340Z,11.40
2019-05-17T03:11:34.398Z,11.95
2019-05-17T03:14:05.271Z,12.05
2019-05-17T03:16:36.012Z,11.03
2019-05-17T03:19:06.667Z,10.65
2019-05-17T03:21:37.309Z,11.10
2019-05-17T03:24:07.970Z,10.35
2019-05-17T03:26:38.589Z,9.88
2019-05-17T03:29:09.522Z,10.48
2019-05-17T03:31:44.869Z,9.83
2019-05-17T03:34:16.775Z,9.53
2019-05-17T03:36:47.012Z,9.77
2019-05-17T03:39:16.811Z,9.58
2019-05-17T03:41:47.633Z,9.23
2019-05-17T03:44:18.442Z,9.58
2019-05-17T03:46:49.137Z,8.95
2019-05-17T03:49:22.361Z,8.85
2019-05-17T03:51:53.215Z,9.90
2019-05-17T03:54:24.192Z,8.78
2019-05-17T03:56:55.046Z,8.23
2019-05-17T03:59:25.763Z,8.65
2019-05-17T04:01:57.574Z,8.08
2019-05-17T04:04:28.411Z,7.70
2019-05-17T04:06:59.163Z,7.83
2019-05-17T04:09:32.679Z,7.72
2019-05-17T04:12:02.859Z,7.35
2019-05-17T04:14:33.777Z,7.12
2019-05-17T04:17:04.571Z,6.50
2019-05-17T04:19:35.319Z,6.22
2019-05-17T04:22:06.152Z,5.45
2019-05-17T04:24:36.713Z,5.42
2019-05-17T04:27:07.403Z,5.28
2019-05-17T04:29:38.166Z,5.40
2019-05-17T04:32:08.832Z,4.80
2019-05-17T04:34:43.395Z,4.58
2019-05-17T04:37:13.082Z,4.72
2019-05-17T04:39:44.728Z,4.55
2019-05-17T04:42:15.519Z,4.70
2019-05-17T04:44:47.190Z,5.12
2019-05-17T04:47:18.045Z,4.97
2019-05-17T04:49:48.650Z,4.85
2019-05-17T04:52:22.524Z,5.10
2019-05-17T04:54:53.796Z,5.40
2019-05-17T04:57:23.967Z,5.08
2019-05-17T04:59:54.911Z,5.17
2019-05-17T05:02:25.570Z,4.97
2019-05-17T05:04:56.152Z,4.58
2019-05-17T05:07:27.771Z,4.30
2019-05-17T05:09:58.524Z,4.60
2019-05-17T05:12:29.309Z,4.12
2019-05-17T05:15:03.214Z,4.67
2019-05-17T05:17:32.982Z,4.13
2019-05-17T05:20:04.379Z,4.30
2019-05-17T05:22:35.013Z,4.28
2019-05-17T05:25:06.808Z,4.87
2019-05-17T05:27:37.408Z,4.62
2019-05-17T05:30:08.305Z,5.00
2019-05-17T05:32:39.013Z,5.12
2019-05-17T05:35:12.376Z,4.58
2019-05-17T05:37:42.769Z,5.05
2019-05-17T05:40:13.579Z,5.28
2019-05-17T05:42:44.310Z,5.75
2019-05-17T05:45:15.109Z,5.17
2019-05-17T05:47:45.727Z,5.75
2019-05-17T05:50:17.713Z,6.05
2019-05-17T05:52:52.312Z,5.97
2019-05-17T05:55:23.373Z,5.28
2019-05-17T05:57:54.198Z,5.35
2019-05-17T06:00:24.960Z,5.40
2019-05-17T06:02:55.642Z,5.40
2019-05-17T06:05:26.364Z,5.65
2019-05-17T06:07:58.219Z,5.37
2019-05-17T06:10:28.809Z,5.33
2019-05-17T06:13:02.585Z,5.78
2019-05-17T06:15:32.021Z,5.90
2019-05-17T06:18:03.228Z,5.03
2019-05-17T06:20:33.897Z,5.70
2019-05-17T06:23:04.433Z,5.10
2019-05-17T06:25:35.141Z,5.03
2019-05-17T06:28:05.848Z,4.92
2019-05-17T06:30:36.623Z,5.35
2019-05-17T06:33:07.240Z,5.60
2019-05-17T06:35:38.032Z,5.40
2019-05-17T06:38:08.860Z,5.40
2019-05-17T06:40:41.731Z,4.35
2019-05-17T06:43:12.970Z,5.30
2019-05-17T06:45:43.891Z,5.30
2019-05-17T06:48:14.750Z,4.85
2019-05-17T06:50:45.521Z,4.90
2019-05-17T06:53:16.157Z,3.90
2019-05-17T06:55:47.001Z,4.20
2019-05-17T06:58:17.616Z,4.70
2019-05-17T07:00:49.770Z,3.80
2019-05-17T07:03:21.039Z,4.50
2019-05-17T07:05:53.198Z,2.30
2019-05-17T07:08:23.902Z,2.10
2019-05-17T07:10:54.841Z,2.00
2019-05-17T07:13:25.746Z,2.40
2019-05-17T07:15:56.306Z,2.20
2019-05-17T07:18:27.057Z,1.75
2019-05-17T07:21:00.837Z,1.90
2019-05-17T07:23:30.379Z,2.00
2019-05-17T07:26:01.155Z,1.60
2019-05-17T07:28:31.726Z,1.55
2019-05-17T07:31:02.515Z,1.40
2019-05-17T07:33:33.192Z,1.52
2019-05-17T07:36:03.965Z,2.17
2019-05-17T07:38:34.942Z,2.25
2019-05-17T07:41:05.989Z,1.80
2019-05-17T07:43:36.809Z,1.45
2019-05-17T07:46:09.484Z,1.37
2019-05-17T07:48:40.892Z,2.27
2019-05-17T07:51:11.635Z,2.10
2019-05-17T07:53:42.374Z,2.10
2019-05-17T07:56:13.157Z,2.08
2019-05-17T07:58:43.895Z,1.90
2019-05-17T08:01:14.573Z,1.52
2019-05-17T08:03:45.310Z,2.17
2019-05-17T08:06:16.126Z,3.00
2019-05-17T08:08:46.855Z,3.85
2019-05-17T08:11:19.577Z,3.37
2019-05-17T08:13:50.458Z,3.90
2019-05-17T08:16:22.167Z,3.30
2019-05-17T08:18:52.928Z,3.80
2019-05-17T08:21:23.761Z,3.87
2019-05-17T08:23:54.400Z,3.75
2019-05-17T08:26:24.996Z,3.98
2019-05-17T08:28:55.739Z,4.22
2019-05-17T08:31:26.747Z,5.20
2019-05-17T08:33:57.359Z,4.22
2019-05-17T08:36:29.833Z,4.53
2019-05-17T08:39:00.218Z,4.08
2019-05-17T08:41:31.141Z,3.85
2019-05-17T08:44:01.814Z,3.40
2019-05-17T08:46:33.752Z,4.53
2019-05-17T08:49:04.336Z,4.03
2019-05-17T08:51:35.146Z,3.70
2019-05-17T08:54:05.732Z,4.75
2019-05-17T08:56:36.417Z,4.70
2019-05-17T08:59:09.455Z,4.83
2019-05-17T09:01:41.863Z,5.17
2019-05-17T09:04:11.839Z,5.40
2019-05-17T09:06:42.521Z,5.25
2019-05-17T09:09:13.400Z,5.28
2019-05-17T09:11:44.110Z,4.83
2019-05-17T09:14:14.823Z,5.08
2019-05-17T09:16:45.485Z,4.97
2019-05-17T09:19:16.241Z,4.72
2019-05-17T09:21:46.891Z,4.25
2019-05-17T09:24:19.437Z,4.08
2019-05-17T09:26:50.514Z,4.10
2019-05-17T09:29:21.086Z,3.75
2019-05-17T09:31:51.777Z,3.58
2019-05-17T09:34:22.519Z,3.50
2019-05-17T09:36:53.449Z,3.33
2019-05-17T09:39:24.039Z,3.00
2019-05-17T09:41:54.639Z,3.80
2019-05-17T09:44:25.435Z,3.45
2019-05-17T09:46:56.019Z,3.60
2019-05-17T09:49:26.618Z,3.47
2019-05-17T09:51:57.544Z,3.70
2019-05-17T09:54:41.670Z,3.30
2019-05-17T09:57:02.278Z,3.30
2019-05-17T09:59:33.082Z,3.87
2019-05-17T10:02:03.696Z,3.58
2019-05-17T10:04:35.962Z,3.50
2019-05-17T10:07:06.619Z,3.70
2019-05-17T10:09:39.840Z,3.70
2019-05-17T10:12:09.810Z,3.70
2019-05-17T10:14:40.496Z,4.17
2019-05-17T10:17:11.536Z,4.70
2019-05-17T10:19:42.363Z,4.80
2019-05-17T10:22:13.220Z,5.05
2019-05-17T10:24:44.041Z,5.25
2019-05-17T10:27:14.844Z,4.70
2019-05-17T10:29:45.808Z,4.75
2019-05-17T10:32:16.478Z,4.33
2019-05-17T10:34:49.410Z,5.30
2019-05-17T10:37:20.323Z,4.72
2019-05-17T10:39:51.324Z,4.47
2019-05-17T10:42:23.004Z,4.90
2019-05-17T10:44:54.719Z,5.10
2019-05-17T10:47:25.640Z,5.12
2019-05-17T10:49:56.266Z,5.42
2019-05-17T10:52:29.742Z,5.75
2019-05-17T10:54:59.918Z,4.50
2019-05-17T10:57:30.834Z,4.92
2019-05-17T11:00:01.426Z,5.92
2019-05-17T11:02:34.041Z,5.20
2019-05-17T11:05:06.087Z,5.22
2019-05-17T11:07:36.805Z,5.20
2019-05-17T11:10:11.216Z,4.80
2019-05-17T11:12:39.696Z,5.17
2019-05-17T11:15:12.023Z,5.50
2019-05-17T11:17:42.551Z,5.07
2019-05-17T11:20:13.342Z,5.42
2019-05-17T11:22:44.044Z,4.65
2019-05-17T11:25:14.786Z,4.97
2019-05-17T11:27:46.854Z,4.55
2019-05-17T11:30:17.454Z,4.85
2019-05-17T11:32:48.080Z,4.70
2019-05-17T11:35:19.041Z,4.60
2019-05-17T11:37:51.135Z,4.60
2019-05-17T11:40:23.114Z,4.50
2019-05-17T11:42:54.830Z,4.30
2019-05-17T11:45:29.078Z,4.22
2019-05-17T11:47:57.737Z,4.15
2019-05-17T11:50:28.502Z,4.03
2019-05-17T11:52:59.720Z,4.20
2019-05-17T11:55:30.859Z,4.08
2019-05-17T11:58:01.797Z,4.12
2019-05-17T12:00:32.417Z,3.90
2019-05-17T12:03:03.458Z,4.00
2019-05-17T12:05:34.235Z,3.45
2019-05-17T12:08:08.093Z,3.87
2019-05-17T12:10:38.617Z,3.90
2019-05-17T12:13:09.403Z,3.83
2019-05-17T12:15:45.195Z,3.37
2019-05-17T12:18:13.430Z,3.37
2019-05-17T12:20:45.412Z,3.70
2019-05-17T12:23:16.005Z,3.83
2019-05-17T12:25:46.625Z,4.17
2019-05-17T12:28:17.587Z,4.15
2019-05-17T12:30:48.380Z,4.17
2019-05-17T12:33:19.192Z,3.67
2019-05-17T12:35:50.405Z,3.65
2019-05-17T12:38:21.110Z,3.80
2019-05-17T12:40:51.878Z,3.70
2019-05-17T12:43:22.677Z,4.08
2019-05-17T12:46:00.711Z,3.95
2019-05-17T12:48:26.942Z,3.10
2019-05-17T12:50:59.048Z,3.80
2019-05-17T12:53:29.798Z,4.05
2019-05-17T12:56:00.499Z,3.70
2019-05-17T12:58:31.151Z,4.62
2019-05-17T13:01:02.369Z,3.90
2019-05-17T13:03:33.426Z,4.70
2019-05-17T13:06:04.077Z,4.37
2019-05-17T13:08:34.763Z,4.30
2019-05-17T13:11:05.683Z,5.17
2019-05-17T13:13:36.369Z,4.45
2019-05-17T13:16:17.569Z,5.33
2019-05-17T13:18:39.709Z,5.90
2019-05-17T13:21:10.943Z,6.12
2019-05-17T13:23:41.628Z,4.83
2019-05-17T13:26:12.480Z,4.35
2019-05-17T13:28:43.467Z,4.10
2019-05-17T13:31:14.677Z,4.10
2019-05-17T13:33:45.358Z,4.35
2019-05-17T13:36:16.698Z,3.77
2019-05-17T13:38:47.864Z,5.47
2019-05-17T13:41:18.884Z,5.37
2019-05-17T13:43:49.581Z,4.97
2019-05-17T13:46:32.179Z,5.37
2019-05-17T13:48:52.914Z,5.10
2019-05-17T13:51:24.269Z,5.37
2019-05-17T13:53:55.312Z,4.05
2019-05-17T13:56:26.520Z,4.55
2019-05-17T13:58:57.114Z,4.37
2019-05-17T14:01:28.081Z,4.95
2019-05-17T14:03:58.764Z,4.67
2019-05-17T14:06:29.701Z,5.22
2019-05-17T14:09:00.745Z,4.40
2019-05-17T14:11:32.717Z,4.22
2019-05-17T14:14:03.882Z,3.80
2019-05-17T14:16:34.864Z,3.67
2019-05-17T14:19:05.541Z,4.50
2019-05-17T14:21:36.951Z,4.05
2019-05-17T14:24:08.777Z,4.08
2019-05-17T14:26:39.529Z,4.50
2019-05-17T14:29:10.302Z,4.85
2019-05-17T14:31:41.146Z,4.85
2019-05-17T14:34:11.715Z,4.50
2019-05-17T14:36:42.391Z,5.95
2019-05-17T14:39:14.002Z,4.33
2019-05-17T14:41:45.257Z,4.33
2019-05-17T14:44:15.833Z,4.90
2019-05-17T14:46:46.473Z,4.90
2019-05-17T14:49:17.606Z,4.97
2019-05-17T14:51:48.386Z,4.92
2019-05-17T14:54:19.269Z,4.90
2019-05-17T14:56:50.081Z,4.70
2019-05-17T14:59:21.072Z,4.70
2019-05-17T15:01:51.786Z,5.50
2019-05-17T15:04:22.458Z,4.92
2019-05-17T15:06:53.284Z,6.22
2019-05-17T15:09:23.928Z,5.17
2019-05-17T15:11:54.601Z,5.17
2019-05-17T15:14:25.217Z,5.42
2019-05-17T15:16:55.853Z,5.85
2019-05-17T15:19:26.762Z,5.95
2019-05-17T15:21:57.716Z,6.33
2019-05-17T15:24:28.642Z,7.55
2019-05-17T15:27:05.186Z,7.10
2019-05-17T15:29:32.028Z,7.80
2019-05-17T15:32:22.034Z,7.60
2019-05-17T15:34:52.621Z,7.25
2019-05-17T15:37:23.324Z,6.67
2019-05-17T15:39:54.007Z,7.75
2019-05-17T15:42:24.843Z,7.03
2019-05-17T15:44:55.805Z,6.78
2019-05-17T15:47:26.825Z,7.65
2019-05-17T15:49:57.620Z,7.72
2019-05-17T15:52:28.340Z,7.85
2019-05-17T15:55:00.259Z,7.20
2019-05-17T15:57:31.049Z,6.55
2019-05-17T16:00:02.472Z,6.55
2019-05-17T16:02:34.029Z,6.85
2019-05-17T16:05:05.140Z,6.30
2019-05-17T16:07:36.778Z,6.67
2019-05-17T16:10:08.342Z,5.58
2019-05-17T16:12:40.181Z,6.08
2019-05-17T16:15:11.847Z,5.87
2019-05-17T16:17:42.960Z,6.45
2019-05-17T16:20:16.916Z,6.42
2019-05-17T16:22:48.161Z,7.20
2019-05-17T16:25:21.983Z,7.20
2019-05-17T16:27:52.582Z,7.05
2019-05-17T16:30:23.715Z,7.55
2019-05-17T16:32:55.956Z,6.80
2019-05-17T16:35:27.391Z,7.40
2019-05-17T16:38:00.576Z,6.85
2019-05-17T16:43:16.746Z,7.40
2019-05-17T16:45:34.505Z,7.20
2019-05-17T16:48:05.450Z,7.03
2019-05-17T16:50:36.283Z,7.03
2019-05-17T16:53:06.941Z,7.85
2019-05-17T16:55:37.526Z,6.95
2019-05-17T16:58:08.401Z,7.67
2019-05-17T17:00:41.722Z,7.28
2019-05-17T17:03:12.319Z,7.67
2019-05-17T17:05:43.428Z,8.10
2019-05-17T17:08:14.180Z,8.85
2019-05-17T17:10:45.147Z,8.10
2019-05-17T17:13:16.003Z,8.30
2019-05-17T17:15:47.809Z,8.63
2019-05-17T17:18:18.868Z,7.92
2019-05-17T17:20:49.766Z,7.72
2019-05-17T17:23:21.468Z,8.10
2019-05-17T17:25:52.741Z,8.20
2019-05-17T17:28:25.508Z,7.80
2019-05-17T17:30:56.353Z,7.80
2019-05-17T17:33:28.462Z,7.28
2019-05-17T17:35:59.723Z,7.12
2019-05-17T17:38:30.526Z,7.45
2019-05-17T17:41:02.927Z,7.58
2019-05-17T17:43:33.678Z,7.25
2019-05-17T17:46:04.400Z,7.15
2019-05-17T17:48:35.253Z,7.47
2019-05-17T17:51:06.097Z,7.95
2019-05-17T17:53:36.917Z,8.08
2019-05-17T17:56:07.970Z,6.60
2019-05-17T17:58:39.017Z,6.85
2019-05-17T18:01:10.188Z,8.13
2019-05-17T18:03:40.924Z,7.75
2019-05-17T18:06:11.813Z,7.28
2019-05-17T18:08:42.945Z,7.50
2019-05-17T18:11:13.841Z,7.42
2019-05-17T18:13:45.043Z,7.75
2019-05-17T18:16:16.164Z,7.85
2019-05-17T18:18:47.173Z,7.25
2019-05-17T18:21:18.363Z,7.58
2019-05-17T18:23:49.194Z,7.17
2019-05-17T18:26:20.328Z,7.00
2019-05-17T18:28:51.326Z,7.72
2019-05-17T18:31:23.973Z,7.42
2019-05-17T18:33:54.876Z,7.53
2019-05-17T18:36:26.176Z,7.45
2019-05-17T18:38:57.465Z,7.03
2019-05-17T18:41:28.492Z,7.03
2019-05-17T18:44:00.567Z,7.07
2019-05-17T18:46:31.696Z,6.95
2019-05-17T18:49:02.711Z,7.58
2019-05-17T18:51:33.682Z,6.70
2019-05-17T18:54:04.633Z,7.80
2019-05-17T18:56:35.851Z,7.50
2019-05-17T18:59:07.015Z,6.92
2019-05-17T19:01:38.360Z,7.85
2019-05-17T19:04:09.285Z,7.55
2019-05-17T19:06:40.450Z,8.08
2019-05-17T19:09:11.527Z,8.13
2019-05-17T19:11:42.804Z,7.87
2019-05-17T19:14:14.456Z,7.75
2019-05-17T19:16:45.499Z,8.48
2019-05-17T19:19:17.265Z,8.35
2019-05-17T19:21:48.325Z,7.53
2019-05-17T19:24:19.236Z,7.85
2019-05-17T19:26:50.155Z,7.80
2019-05-17T19:29:20.902Z,7.33
2019-05-17T19:31:51.735Z,8.38
2019-05-17T19:34:22.687Z,8.35
2019-05-17T19:36:54.163Z,8.85
2019-05-17T19:39:25.178Z,8.45
2019-05-17T19:41:56.130Z,7.90
2019-05-17T19:44:29.252Z,8.08
2019-05-17T19:46:59.759Z,8.45
2019-05-17T19:49:30.566Z,8.20
2019-05-17T19:52:04.161Z,8.28
2019-05-17T19:54:35.963Z,8.35
2019-05-17T19:59:38.124Z,8.28
2019-05-17T20:02:09.607Z,8.20
2019-05-17T20:04:40.312Z,7.62
2019-05-17T20:07:11.053Z,7.42
2019-05-17T20:09:41.918Z,8.15
2019-05-17T20:12:13.218Z,7.35
2019-05-17T20:14:43.979Z,7.97
2019-05-17T20:17:14.787Z,7.50
2019-05-17T20:19:45.931Z,8.08
2019-05-17T20:22:18.072Z,8.67
2019-05-17T20:24:48.804Z,8.60
2019-05-17T20:27:19.782Z,8.50
2019-05-17T20:29:50.422Z,8.40
2019-05-17T20:32:22.447Z,7.90
2019-05-17T20:34:53.180Z,8.83
2019-05-17T20:37:24.367Z,9.03
2019-05-17T20:39:55.297Z,8.93
2019-05-17T20:42:26.148Z,9.10
2019-05-17T20:44:56.911Z,8.50
2019-05-17T20:47:28.717Z,8.68
2019-05-17T20:49:59.411Z,8.13
2019-05-17T20:52:30.245Z,8.60
2019-05-17T20:55:01.767Z,8.68
2019-05-17T20:57:33.006Z,8.48
2019-05-17T21:00:05.841Z,7.72
2019-05-17T21:02:38.201Z,8.35
2019-05-17T21:05:09.115Z,8.23
2019-05-17T21:07:40.488Z,8.20
2019-05-17T21:10:11.463Z,7.20
2019-05-17T21:12:43.866Z,7.85
2019-05-17T21:15:15.189Z,7.28
2019-05-17T21:17:45.930Z,7.90
2019-05-17T21:20:16.675Z,7.60
2019-05-17T21:22:47.563Z,7.80
2019-05-17T21:25:18.535Z,7.67
2019-05-17T21:27:49.069Z,7.58
2019-05-17T21:30:19.720Z,7.30
2019-05-17T21:32:51.563Z,7.53
2019-05-17T21:35:22.621Z,7.42
2019-05-17T21:37:53.336Z,6.90
2019-05-17T21:40:24.659Z,6.33
2019-05-17T21:42:55.623Z,6.05
2019-05-17T21:45:26.431Z,4.62
2019-05-17T21:47:57.320Z,5.00
2019-05-17T21:50:28.129Z,4.70
2019-05-17T21:52:58.719Z,4.30
2019-05-17T21:55:29.581Z,4.55
2019-05-17T21:58:00.696Z,4.67
2019-05-17T22:00:50.849Z,4.30
2019-05-17T22:03:21.641Z,3.85
2019-05-17T22:05:52.458Z,4.20
2019-05-17T22:08:23.161Z,3.87
2019-05-17T22:10:54.009Z,3.92
2019-05-17T22:13:25.039Z,3.62
2019-05-17T22:15:55.904Z,3.20
2019-05-17T22:18:27.949Z,3.27
2019-05-17T22:20:59.187Z,3.37
2019-05-17T22:23:29.912Z,3.15
2019-05-17T22:26:00.626Z,2.85
2019-05-17T22:28:31.868Z,3.02
2019-05-17T22:31:02.903Z,2.40
2019-05-17T22:33:33.741Z,2.30
2019-05-17T22:36:04.694Z,1.80
2019-05-17T22:38:35.481Z,2.00
2019-05-17T22:41:06.167Z,1.82
2019-05-17T22:43:37.075Z,1.67
2019-05-17T22:46:07.658Z,1.55
2019-05-17T22:48:39.335Z,1.70
2019-05-17T22:51:09.896Z,1.60
2019-05-17T22:53:40.690Z,1.50
2019-05-17T22:56:11.241Z,1.30
2019-05-17T22:58:41.895Z,1.30
2019-05-17T23:01:12.773Z,1.30
2019-05-17T23:03:43.558Z,1.37
2019-05-17T23:06:14.156Z,1.00
2019-05-17T23:08:44.632Z,1.30
2019-05-17T23:11:15.454Z,1.50
2019-05-17T23:13:46.210Z,1.42
2019-05-17T23:16:16.792Z,1.42
2019-05-17T23:19:05.385Z,1.50
2019-05-17T23:21:36.059Z,1.40
2019-05-17T23:24:06.545Z,1.77
2019-05-17T23:26:37.149Z,1.82
2019-05-17T23:29:07.722Z,1.95
2019-05-17T23:31:38.372Z,1.70
2019-05-17T23:34:09.032Z,1.45
2019-05-17T23:36:39.967Z,1.67
2019-05-17T23:39:10.383Z,1.37
2019-05-17T23:41:40.935Z,1.60
2019-05-17T23:44:11.555Z,1.50
2019-05-17T23:46:42.143Z,1.40
2019-05-17T23:49:12.826Z,1.25
2019-05-17T23:51:43.501Z,1.10
2019-05-17T23:54:14.145Z,1.12
2019-05-17T23:56:44.771Z,1.20
2019-05-17T23:59:15.362Z,0.95
